Main page
METAR-TAF:

METAR-TAF

Airports :

Dubai, United Arab Emirates

Al Maktoum International Airport

latitude: 24-53-49N, longitude: 55-09-40E, elevation: 35 m

Current weather observation

The report was made 52 minutes ago, at 04:00 UTC
Wind 4 kt from the South
Temperature 25°C
Humidity 74%
Pressure 1011 hPa
Visibility: 8000 m

METAR: OMDW 220400Z 18004KT 8000 NSC 25/20 Q1011 NOSIG

Time: 08:52 (04:52 UTC)

Forecast

The report was made 5 hours and 49 minutes ago, at 23:03 UTC
Forecast valid from 22 at 00 UTC to 23 at 06 UTC
Wind 5 kt from the Southeast
Visibility: 8000 m
Probability 30%
from 22 at 00 UTC to 22 at 05 UTC
Visibility: 4000 m
haze
Becoming
from 22 at 07 UTC to 22 at 09 UTC
Wind 14 kt from the West/Northwest
Becoming
from 22 at 16 UTC to 22 at 18 UTC
Wind 5 kt from the South
Probability 40%
from 22 at 20 UTC to 23 at 05 UTC
Visibility: 4000 m
haze

TAF: OMDW 212303Z 2200/2306 14005KT 8000 NSC PROB30 2200/2205 4000 HZ BECMG 2207/2209 30014KT BECMG 2216/2218 17005KT PROB40 2220/2305 4000 HZ

Weather observations and forecasts of more than 4000 airports (METAR and TAF reports).

The available stations are represented by yellow and red dots on the map.

Hover mouse over dot to see the name of the station.

Then click to see weather observations and forecasts.

To change the map : click on the green buttons with a black cross to zoom in, on the green button with a dash to zoom out, or on the green arrows for adjacent maps.


METAR-TAF: